Time;durP1;ratioP1;P1;durP2;ratioP2;P2;SDS_P1;SDS_P2;PMS_P1;PMS_P2;Temp;Humidity;BMP_temperature;BMP_pressure;BME280_temperature;BME280_humidity;BME280_pressure;Samples;Min_cycle;Max_cycle;Signal;HPM_P1;HPM_P2
2021/07/10 00:02:07;;;;;;;40.28;22.20;;;18.60;99.90;;;;;;5068929;28;20627;-87
2021/07/10 00:04:33;;;;;;;33.90;22.52;;;18.60;99.90;;;;;;5074645;28;20180;-87
2021/07/10 00:06:59;;;;;;;35.15;21.05;;;18.60;99.90;;;;;;5085800;28;20635;-84
2021/07/10 00:09:26;;;;;;;35.95;22.10;;;18.60;99.90;;;;;;5076473;28;20624;-86
2021/07/10 00:11:51;;;;;;;39.15;22.83;;;18.50;99.90;;;;;;5075571;28;20170;-86
2021/07/10 00:14:17;;;;;;;42.95;23.90;;;18.50;99.90;;;;;;5076421;28;20166;-87
2021/07/10 00:16:43;;;;;;;35.58;22.38;;;18.40;99.90;;;;;;5093395;28;20292;-87
2021/07/10 00:19:10;;;;;;;35.90;22.85;;;18.40;99.90;;;;;;5093122;28;20281;-86
2021/07/10 00:21:35;;;;;;;36.15;21.38;;;18.50;99.90;;;;;;5093918;28;20177;-86
2021/07/10 00:24:01;;;;;;;36.60;21.80;;;18.50;99.90;;;;;;5093741;28;20608;-85
2021/07/10 00:26:27;;;;;;;32.72;20.27;;;18.40;99.90;;;;;;5074805;28;20184;-85
2021/07/10 00:28:52;;;;;;;34.45;21.98;;;18.30;99.90;;;;;;5075263;28;20170;-85
2021/07/10 00:31:18;;;;;;;33.67;21.35;;;18.30;99.90;;;;;;5058522;28;20174;-85
2021/07/10 00:33:45;;;;;;;32.13;20.95;;;18.20;99.90;;;;;;5075284;28;20162;-84
2021/07/10 00:36:11;;;;;;;42.47;24.15;;;18.30;99.90;;;;;;5069552;28;20227;-85
2021/07/10 00:38:37;;;;;;;41.55;23.60;;;18.30;99.90;;;;;;5054909;28;20569;-84
2021/07/10 00:41:03;;;;;;;43.97;23.10;;;18.10;99.90;;;;;;5072976;28;20266;-85
2021/07/10 00:43:28;;;;;;;39.40;23.73;;;17.90;99.90;;;;;;5073693;28;20171;-85
2021/07/10 00:45:54;;;;;;;41.72;23.40;;;17.70;99.90;;;;;;5055110;28;20635;-84
2021/07/10 00:48:20;;;;;;;47.35;25.65;;;17.70;99.90;;;;;;5067885;28;20188;-84
2021/07/10 00:50:47;;;;;;;43.80;22.25;;;17.70;99.90;;;;;;5074974;28;20177;-84
2021/07/10 00:53:13;;;;;;;34.33;21.27;;;17.70;99.90;;;;;;5065409;28;20213;-85
2021/07/10 00:55:38;;;;;;;36.70;23.02;;;17.70;99.90;;;;;;5073414;28;20167;-85
2021/07/10 00:58:04;;;;;;;50.97;24.70;;;17.60;99.90;;;;;;5055074;28;20555;-84
2021/07/10 01:00:30;;;;;;;40.45;24.08;;;17.60;99.90;;;;;;5038283;28;20175;-84
2021/07/10 01:02:56;;;;;;;45.42;23.73;;;17.70;99.90;;;;;;5055203;28;20259;-84
2021/07/10 01:05:25;;;;;;;37.40;22.20;;;17.70;99.90;;;;;;5073049;28;20167;-84
2021/07/10 01:07:52;;;;;;;38.95;23.90;;;17.70;99.90;;;;;;5073688;28;20683;-84
2021/07/10 01:10:18;;;;;;;34.60;22.23;;;17.70;99.90;;;;;;5073219;28;20173;-85
2021/07/10 01:12:46;;;;;;;32.22;20.33;;;17.70;99.90;;;;;;5076673;28;20174;-84
2021/07/10 01:15:14;;;;;;;37.85;22.45;;;17.70;99.90;;;;;;5074699;28;20541;-84
2021/07/10 01:17:42;;;;;;;34.60;23.08;;;17.70;99.90;;;;;;5073870;28;20177;-85
2021/07/10 01:20:10;;;;;;;42.78;23.98;;;17.60;99.90;;;;;;5074859;28;20284;-84
2021/07/10 01:22:37;;;;;;;39.40;21.85;;;17.60;99.90;;;;;;5068878;28;20170;-85
2021/07/10 01:25:05;;;;;;;43.65;23.05;;;17.50;99.90;;;;;;5077868;28;20197;-85
2021/07/10 01:27:30;;;;;;;32.22;21.20;;;17.50;99.90;;;;;;5096776;28;20185;-85
2021/07/10 01:29:57;;;;;;;36.30;22.50;;;17.60;99.90;;;;;;5045017;28;20174;-85
2021/07/10 01:32:24;;;;;;;37.35;22.63;;;17.50;99.90;;;;;;5077209;28;20184;-85
2021/07/10 01:34:50;;;;;;;46.13;24.42;;;17.60;99.90;;;;;;5041472;28;20174;-84
2021/07/10 01:37:16;;;;;;;37.72;21.60;;;17.50;99.90;;;;;;5058140;28;20181;-84
2021/07/10 01:39:43;;;;;;;36.60;21.85;;;17.50;99.90;;;;;;5058183;28;20706;-84
2021/07/10 01:42:10;;;;;;;33.45;21.50;;;17.50;99.90;;;;;;5058040;28;20213;-84
2021/07/10 01:44:36;;;;;;;39.70;23.15;;;17.50;99.90;;;;;;5057948;28;20186;-85
2021/07/10 01:47:02;;;;;;;37.20;23.33;;;17.40;99.90;;;;;;5059249;28;20169;-85
2021/07/10 01:49:27;;;;;;;39.00;22.58;;;17.50;99.90;;;;;;5095915;28;20261;-85
2021/07/10 01:51:53;;;;;;;42.00;22.77;;;17.50;99.90;;;;;;5095542;28;20174;-85
2021/07/10 01:54:19;;;;;;;36.22;21.83;;;17.40;99.90;;;;;;5061612;28;20207;-85
2021/07/10 01:56:44;;;;;;;36.28;22.13;;;17.40;99.90;;;;;;5075750;28;20270;-85
2021/07/10 01:59:10;;;;;;;32.25;20.63;;;17.30;99.90;;;;;;5057994;28;20230;-85
2021/07/10 02:01:36;;;;;;;34.97;19.63;;;17.20;99.90;;;;;;5041167;28;20217;-84
2021/07/10 02:04:02;;;;;;;28.17;18.83;;;17.10;99.90;;;;;;5059127;28;20655;-85
2021/07/10 02:06:28;;;;;;;28.73;18.30;;;17.00;99.90;;;;;;5057491;28;20181;-85
2021/07/10 02:08:54;;;;;;;29.10;18.95;;;16.90;99.90;;;;;;5075760;28;20171;-85
2021/07/10 02:11:20;;;;;;;29.02;19.88;;;16.80;99.90;;;;;;5075573;28;20158;-85
2021/07/10 02:13:46;;;;;;;31.52;20.27;;;16.90;99.90;;;;;;5086551;28;20182;-85
2021/07/10 02:16:12;;;;;;;36.38;21.45;;;16.90;99.90;;;;;;5044174;28;20181;-84
2021/07/10 02:18:38;;;;;;;25.00;18.50;;;17.00;99.90;;;;;;5095506;28;20194;-85
2021/07/10 02:21:04;;;;;;;30.05;19.30;;;17.00;99.90;;;;;;5077208;28;20797;-85
2021/07/10 02:23:30;;;;;;;34.67;21.38;;;16.90;99.90;;;;;;5086510;28;20175;-85
2021/07/10 02:25:56;;;;;;;35.17;21.20;;;16.80;99.90;;;;;;5075269;28;20175;-85
2021/07/10 02:28:21;;;;;;;33.83;20.65;;;16.90;99.90;;;;;;5057577;28;20543;-84
2021/07/10 02:30:48;;;;;;;38.88;20.50;;;16.90;99.90;;;;;;5075143;28;20170;-84
2021/07/10 02:33:15;;;;;;;28.80;19.55;;;16.90;99.90;;;;;;5066970;28;20269;-85
2021/07/10 02:35:42;;;;;;;32.80;19.75;;;16.90;99.90;;;;;;5060454;28;20170;-85
2021/07/10 02:38:07;;;;;;;26.77;18.25;;;16.90;99.90;;;;;;5095248;28;20158;-85
2021/07/10 02:40:35;;;;;;;33.22;20.73;;;17.00;99.90;;;;;;5077271;28;20181;-85
2021/07/10 02:43:01;;;;;;;33.80;20.05;;;17.00;99.90;;;;;;5076352;28;20272;-84
2021/07/10 02:45:27;;;;;;;32.33;20.23;;;17.00;99.90;;;;;;5077298;28;20204;-85
2021/07/10 02:47:54;;;;;;;28.50;19.17;;;17.00;99.90;;;;;;5077159;28;20170;-85
2021/07/10 02:50:24;;;;;;;29.25;20.15;;;17.00;99.90;;;;;;5077254;28;20510;-85
2021/07/10 02:52:50;;;;;;;32.35;20.25;;;17.00;99.90;;;;;;5064955;28;20560;-84
2021/07/10 02:55:15;;;;;;;29.58;19.05;;;17.00;99.90;;;;;;5092328;28;20181;-85
2021/07/10 02:57:41;;;;;;;36.17;19.83;;;17.10;99.90;;;;;;5060311;28;20190;-86
2021/07/10 03:00:13;;;;;;;33.08;20.27;;;17.10;99.90;;;;;;5076819;28;20219;-85
2021/07/10 03:02:39;;;;;;;30.73;20.55;;;17.20;99.90;;;;;;5076250;28;20194;-85
2021/07/10 03:05:06;;;;;;;31.80;18.52;;;17.20;99.90;;;;;;5076622;28;20177;-84
2021/07/10 03:07:32;;;;;;;29.48;19.25;;;17.10;99.90;;;;;;5076822;28;20259;-85
2021/07/10 03:09:58;;;;;;;31.60;18.80;;;17.10;99.90;;;;;;5060297;28;20268;-84
2021/07/10 03:12:24;;;;;;;31.17;18.95;;;17.20;99.90;;;;;;5057777;28;20689;-85
2021/07/10 03:14:49;;;;;;;31.63;18.90;;;17.30;99.90;;;;;;5056442;28;20167;-85
2021/07/10 03:17:16;;;;;;;28.35;18.23;;;17.30;99.90;;;;;;5023122;28;20673;-85
2021/07/10 03:19:41;;;;;;;25.77;17.70;;;17.30;99.90;;;;;;5056854;28;20293;-84
2021/07/10 03:22:07;;;;;;;38.03;17.88;;;17.30;99.90;;;;;;5074300;28;20258;-85
2021/07/10 03:24:33;;;;;;;29.15;19.80;;;17.30;99.90;;;;;;5076669;28;20178;-85
2021/07/10 03:26:58;;;;;;;22.00;16.60;;;17.30;99.90;;;;;;5074178;28;20182;-85
2021/07/10 03:29:24;;;;;;;23.20;16.52;;;17.20;99.90;;;;;;5056309;28;20181;-85
2021/07/10 03:31:50;;;;;;;31.27;18.42;;;17.20;99.90;;;;;;5073918;28;20185;-85
2021/07/10 03:34:16;;;;;;;26.63;18.00;;;17.30;99.90;;;;;;5072936;28;20178;-86
2021/07/10 03:36:41;;;;;;;28.17;18.13;;;17.40;99.90;;;;;;5059660;28;20170;-85
2021/07/10 03:39:07;;;;;;;24.30;16.80;;;17.40;99.90;;;;;;5094331;28;20250;-84
2021/07/10 03:41:32;;;;;;;22.58;16.17;;;17.40;99.90;;;;;;5076214;28;20185;-85
2021/07/10 03:43:58;;;;;;;24.67;17.48;;;17.50;99.90;;;;;;5059235;28;20179;-85
2021/07/10 03:46:24;;;;;;;22.75;16.73;;;17.50;99.90;;;;;;5038932;28;20257;-85
2021/07/10 03:48:49;;;;;;;26.40;18.10;;;17.60;99.90;;;;;;5056086;28;20579;-85
2021/07/10 03:51:15;;;;;;;23.13;16.48;;;17.70;99.90;;;;;;5056127;28;20197;-84
2021/07/10 03:53:41;;;;;;;24.00;17.38;;;17.70;99.90;;;;;;5053428;28;20178;-86
2021/07/10 03:56:06;;;;;;;23.00;16.27;;;17.80;99.90;;;;;;5076163;28;20619;-86
2021/07/10 03:58:32;;;;;;;18.25;14.80;;;17.80;99.90;;;;;;5058910;28;20205;-85
2021/07/10 04:00:57;;;;;;;20.88;16.42;;;17.80;99.90;;;;;;5059182;28;20182;-85
2021/07/10 04:03:23;;;;;;;23.80;15.40;;;17.80;99.90;;;;;;5062076;28;20643;-85
2021/07/10 04:05:49;;;;;;;23.17;14.35;;;17.80;99.90;;;;;;5055805;28;20173;-85
2021/07/10 04:08:14;;;;;;;19.58;15.13;;;17.80;99.90;;;;;;5056016;28;20685;-84
2021/07/10 04:10:40;;;;;;;18.30;13.57;;;17.90;99.90;;;;;;5039295;28;20188;-85
2021/07/10 04:13:10;;;;;;;21.13;14.23;;;17.90;99.90;;;;;;5067103;28;20627;-85
2021/07/10 04:15:35;;;;;;;18.60;14.75;;;17.90;99.90;;;;;;5093779;28;20245;-86
2021/07/10 04:18:01;;;;;;;23.58;15.68;;;17.90;99.90;;;;;;5093621;28;20258;-85
2021/07/10 04:20:27;;;;;;;14.95;12.95;;;18.00;99.90;;;;;;5092738;28;20209;-84
2021/07/10 04:22:52;;;;;;;18.77;13.20;;;18.10;99.90;;;;;;5055484;28;20193;-85
2021/07/10 04:25:18;;;;;;;14.38;12.73;;;18.10;99.90;;;;;;5073518;28;20178;-85
2021/07/10 04:27:45;;;;;;;15.85;12.07;;;18.10;99.90;;;;;;5075504;28;20173;-85
2021/07/10 04:30:13;;;;;;;18.13;13.13;;;18.00;99.90;;;;;;5045004;28;20187;-84
2021/07/10 04:32:39;;;;;;;18.77;12.80;;;18.00;99.90;;;;;;5055918;28;20274;-85
2021/07/10 04:35:06;;;;;;;15.93;12.45;;;18.00;99.90;;;;;;5055635;28;20199;-85
2021/07/10 04:37:32;;;;;;;16.85;13.20;;;18.00;99.90;;;;;;5073294;28;20163;-86
2021/07/10 04:39:58;;;;;;;20.10;13.80;;;18.00;99.90;;;;;;5073046;28;20198;-85
2021/07/10 04:42:24;;;;;;;18.90;13.93;;;18.20;99.90;;;;;;5077514;28;20219;-85
2021/07/10 04:44:50;;;;;;;17.38;13.70;;;18.30;99.90;;;;;;5093631;28;20170;-85
2021/07/10 04:47:16;;;;;;;15.70;12.30;;;18.30;99.90;;;;;;5058884;28;20186;-85
2021/07/10 04:49:43;;;;;;;17.65;13.70;;;18.30;99.90;;;;;;5075467;28;20181;-85
2021/07/10 04:52:08;;;;;;;21.50;14.48;;;18.20;99.90;;;;;;5071902;28;20173;-85
2021/07/10 04:54:34;;;;;;;23.45;15.02;;;18.20;99.90;;;;;;5075022;28;20547;-85
2021/07/10 04:57:00;;;;;;;20.92;14.82;;;18.30;99.90;;;;;;5075456;28;20178;-85
2021/07/10 04:59:26;;;;;;;18.10;13.38;;;18.40;99.90;;;;;;5096951;28;20202;-85
2021/07/10 05:01:51;;;;;;;21.35;13.57;;;18.40;99.90;;;;;;5097018;28;20684;-85
2021/07/10 05:04:17;;;;;;;21.55;14.52;;;18.40;99.90;;;;;;5059299;28;20201;-85
2021/07/10 05:06:42;;;;;;;17.58;14.57;;;18.40;99.90;;;;;;5025989;28;20171;-86
2021/07/10 05:09:08;;;;;;;19.20;14.95;;;18.60;99.90;;;;;;5042383;28;20198;-84
2021/07/10 05:11:34;;;;;;;19.70;14.73;;;18.70;99.90;;;;;;5042121;28;20170;-85
2021/07/10 05:13:59;;;;;;;18.67;13.85;;;18.80;99.90;;;;;;5093970;28;20205;-85
2021/07/10 05:16:25;;;;;;;15.55;12.55;;;18.90;99.90;;;;;;5096998;28;20166;-86
2021/07/10 05:18:51;;;;;;;15.70;13.10;;;19.10;99.90;;;;;;5078844;28;20284;-85
2021/07/10 05:21:19;;;;;;;21.83;15.27;;;19.10;99.90;;;;;;5096073;28;20178;-85
2021/07/10 05:23:45;;;;;;;16.60;13.93;;;19.30;99.90;;;;;;5063536;28;20308;-85
2021/07/10 05:26:10;;;;;;;16.73;14.30;;;19.50;99.90;;;;;;5058594;28;20270;-85
2021/07/10 05:28:36;;;;;;;15.57;12.82;;;19.70;99.90;;;;;;5076491;28;20610;-85
2021/07/10 05:31:03;;;;;;;14.27;12.85;;;19.90;99.90;;;;;;5058429;28;20192;-85
2021/07/10 05:33:28;;;;;;;18.33;12.18;;;20.00;99.90;;;;;;5065386;28;20178;-85
2021/07/10 05:35:54;;;;;;;14.63;11.43;;;20.10;99.90;;;;;;5042154;28;20529;-85
2021/07/10 05:38:19;;;;;;;14.95;11.10;;;20.20;99.90;;;;;;5041521;28;20240;-86
2021/07/10 05:40:45;;;;;;;18.02;11.93;;;20.30;99.90;;;;;;5075960;28;20203;-85
2021/07/10 05:43:11;;;;;;;14.60;12.93;;;20.30;99.90;;;;;;5048360;28;20261;-85
2021/07/10 05:45:37;;;;;;;16.23;13.45;;;20.40;99.90;;;;;;5076292;28;20174;-85
2021/07/10 05:48:03;;;;;;;13.60;11.52;;;20.50;99.90;;;;;;5041527;28;20182;-85
2021/07/10 05:50:29;;;;;;;14.20;11.93;;;20.60;99.90;;;;;;5078799;28;20236;-84
2021/07/10 05:52:55;;;;;;;15.15;12.07;;;20.50;99.90;;;;;;5089146;28;20183;-85
2021/07/10 05:55:21;;;;;;;16.48;13.20;;;20.50;99.90;;;;;;5075853;28;20175;-86
2021/07/10 05:57:46;;;;;;;14.75;12.85;;;20.50;99.90;;;;;;5057922;28;20186;-86
2021/07/10 06:00:13;;;;;;;19.25;12.32;;;20.50;99.90;;;;;;5075822;28;20210;-85
2021/07/10 06:02:39;;;;;;;20.52;12.50;;;20.60;99.90;;;;;;5080116;28;20162;-85
2021/07/10 06:05:07;;;;;;;16.10;11.60;;;20.70;99.90;;;;;;5061082;28;20201;-85
2021/07/10 06:07:33;;;;;;;13.52;12.13;;;20.70;99.90;;;;;;5095681;28;20245;-85
2021/07/10 06:09:59;;;;;;;14.13;11.18;;;20.80;99.90;;;;;;5094842;28;20216;-85
2021/07/10 06:12:25;;;;;;;23.08;12.93;;;21.10;99.90;;;;;;5077482;28;20219;-85
2021/07/10 06:14:50;;;;;;;13.20;11.43;;;21.30;99.90;;;;;;5078026;28;20242;-85
2021/07/10 06:17:16;;;;;;;16.13;11.07;;;21.60;99.90;;;;;;5057172;28;20202;-84
2021/07/10 06:19:42;;;;;;;13.18;10.93;;;21.80;99.90;;;;;;5075024;28;20206;-84
2021/07/10 06:22:08;;;;;;;11.95;10.70;;;22.00;99.90;;;;;;5078351;28;20252;-85
2021/07/10 06:24:35;;;;;;;11.65;10.07;;;22.20;99.90;;;;;;5078286;28;20542;-85
2021/07/10 06:27:00;;;;;;;23.05;10.52;;;22.20;99.90;;;;;;5096387;28;20158;-85
2021/07/10 06:29:26;;;;;;;15.38;11.27;;;22.20;99.90;;;;;;5077997;28;20186;-85
2021/07/10 06:31:52;;;;;;;11.10;10.10;;;22.20;99.90;;;;;;5074969;28;20711;-84
2021/07/10 06:34:17;;;;;;;12.50;10.75;;;22.40;99.90;;;;;;5070081;28;20178;-84
2021/07/10 06:36:43;;;;;;;11.35;10.15;;;22.70;99.90;;;;;;5060899;28;20585;-85
2021/07/10 06:39:09;;;;;;;15.68;10.82;;;22.80;99.90;;;;;;5077377;28;20190;-85
2021/07/10 06:41:37;;;;;;;13.18;10.25;;;23.00;99.90;;;;;;5094976;28;20174;-83
2021/07/10 06:44:03;;;;;;;12.90;9.70;;;23.10;99.90;;;;;;5057644;28;20182;-85
2021/07/10 06:46:29;;;;;;;15.70;10.18;;;23.20;99.90;;;;;;5057438;28;20177;-85
2021/07/10 06:48:55;;;;;;;13.35;9.82;;;23.20;99.90;;;;;;5040561;28;20178;-86
2021/07/10 06:51:20;;;;;;;12.30;9.93;;;23.20;99.90;;;;;;5080330;28;20178;-86
2021/07/10 06:53:46;;;;;;;9.73;8.85;;;23.10;99.90;;;;;;5058118;28;20177;-87
2021/07/10 06:56:12;;;;;;;10.00;8.98;;;22.90;99.90;;;;;;5044046;28;20170;-86
2021/07/10 06:58:37;;;;;;;9.88;8.75;;;22.80;99.90;;;;;;5067764;28;20210;-86
2021/07/10 07:01:03;;;;;;;12.93;9.27;;;22.90;99.90;;;;;;5056573;28;20187;-85
2021/07/10 07:03:31;;;;;;;13.48;9.02;;;23.10;99.90;;;;;;5056337;28;20625;-83
2021/07/10 07:05:56;;;;;;;11.32;8.45;;;23.40;99.90;;;;;;5056262;28;20174;-85
2021/07/10 07:08:22;;;;;;;11.80;9.00;;;23.50;99.90;;;;;;5056597;28;20166;-84
2021/07/10 07:10:48;;;;;;;10.25;9.15;;;23.70;99.90;;;;;;5050201;28;20702;-85
2021/07/10 07:13:13;;;;;;;13.45;10.15;;;23.70;99.90;;;;;;5056672;28;20197;-86
2021/07/10 07:15:39;;;;;;;13.95;9.52;;;23.70;99.90;;;;;;5074455;28;20611;-87
2021/07/10 07:18:04;;;;;;;13.18;8.85;;;23.70;99.90;;;;;;5040312;28;20181;-85
2021/07/10 07:20:30;;;;;;;10.55;9.38;;;23.90;99.90;;;;;;5074835;28;20202;-86
2021/07/10 07:22:56;;;;;;;13.13;8.95;;;24.00;99.90;;;;;;5074064;28;20181;-85
2021/07/10 07:25:23;;;;;;;16.33;9.90;;;24.10;99.90;;;;;;5074404;28;20179;-86
2021/07/10 07:27:51;;;;;;;14.77;9.45;;;24.40;99.90;;;;;;5088712;28;20182;-86
2021/07/10 07:30:18;;;;;;;9.93;8.25;;;24.70;99.90;;;;;;5072176;28;20649;-86
2021/07/10 07:32:44;;;;;;;12.65;8.70;;;25.30;99.90;;;;;;5063482;28;20183;-87
2021/07/10 07:35:12;;;;;;;13.50;9.32;;;25.80;99.90;;;;;;5074202;28;20167;-86
2021/07/10 07:37:38;;;;;;;9.13;8.38;;;26.30;99.90;;;;;;5074146;28;20163;-85
2021/07/10 07:40:10;;;;;;;8.32;7.47;;;26.70;99.90;;;;;;5052641;28;20209;-86
2021/07/10 07:42:36;;;;;;;10.05;7.57;;;27.10;99.90;;;;;;5056125;28;20265;-86
2021/07/10 07:45:04;;;;;;;9.68;7.60;;;27.30;99.90;;;;;;5045381;28;20270;-86
2021/07/10 07:47:30;;;;;;;7.07;6.25;;;27.80;99.90;;;;;;5056000;28;20169;-86
2021/07/10 07:49:55;;;;;;;12.18;6.82;;;28.20;99.90;;;;;;5023106;28;20552;-86
2021/07/10 07:52:21;;;;;;;8.60;7.15;;;28.50;99.90;;;;;;5094326;28;20178;-87
2021/07/10 07:54:47;;;;;;;6.93;6.38;;;28.50;99.90;;;;;;5076175;28;20174;-86
2021/07/10 07:57:12;;;;;;;8.55;6.10;;;28.40;99.90;;;;;;5093398;28;20536;-86
2021/07/10 07:59:38;;;;;;;6.07;5.57;;;28.30;99.90;;;;;;5059239;28;20660;-86
2021/07/10 08:02:05;;;;;;;9.50;6.13;;;28.60;99.90;;;;;;5073486;28;20260;-86
2021/07/10 08:04:30;;;;;;;7.32;6.60;;;29.10;99.90;;;;;;5075815;28;20620;-87
2021/07/10 08:06:56;;;;;;;10.85;6.93;;;29.20;99.90;;;;;;5076617;28;20253;-87
2021/07/10 08:09:22;;;;;;;7.93;6.22;;;29.40;99.90;;;;;;5094583;28;20166;-87
2021/07/10 08:11:47;;;;;;;8.57;5.85;;;30.00;99.90;;;;;;5042252;28;20178;-87
2021/07/10 08:14:13;;;;;;;9.43;6.38;;;30.30;99.90;;;;;;5059399;28;20176;-86
2021/07/10 08:16:39;;;;;;;9.57;6.28;;;30.80;99.90;;;;;;5059103;28;20620;-87
2021/07/10 08:19:05;;;;;;;11.15;5.72;;;31.40;99.90;;;;;;5058566;28;20213;-87
2021/07/10 08:21:33;;;;;;;6.22;5.72;;;32.30;99.90;;;;;;5062337;28;20356;-87
2021/07/10 08:23:59;;;;;;;8.95;6.13;;;33.00;99.90;;;;;;5073190;28;20174;-86
2021/07/10 08:26:27;;;;;;;7.97;5.40;;;32.80;99.90;;;;;;5075734;28;20184;-85
2021/07/10 08:28:54;;;;;;;8.88;5.30;;;32.60;99.90;;;;;;5059094;28;20189;-86
2021/07/10 08:31:20;;;;;;;4.72;4.32;;;32.20;99.90;;;;;;5041339;28;20169;-86
2021/07/10 08:33:46;;;;;;;4.90;4.50;;;32.10;99.90;;;;;;5095340;28;20165;-87
2021/07/10 08:36:12;;;;;;;5.07;4.60;;;31.50;99.90;;;;;;5062489;28;20186;-87
2021/07/10 08:38:38;;;;;;;7.00;4.68;;;31.10;99.90;;;;;;5042882;28;20197;-87
2021/07/10 08:41:11;;;;;;;6.82;5.10;;;30.80;99.90;;;;;;5059777;28;20166;-87
2021/07/10 08:43:39;;;;;;;10.70;5.40;;;30.50;99.90;;;;;;5061812;28;20650;-87
2021/07/10 08:46:06;;;;;;;6.78;4.80;;;30.00;99.90;;;;;;5053375;28;20178;-87
2021/07/10 08:48:33;;;;;;;7.72;4.40;;;29.80;99.90;;;;;;5059904;28;20200;-87
2021/07/10 08:51:03;;;;;;;9.73;5.30;;;29.90;99.90;;;;;;5065817;28;20174;-86
2021/07/10 08:53:30;;;;;;;10.63;4.50;;;30.20;99.90;;;;;;5071499;28;20219;-87
2021/07/10 08:55:56;;;;;;;6.75;4.70;;;31.60;99.90;;;;;;5076223;28;20186;-87
2021/07/10 08:58:21;;;;;;;6.25;4.45;;;34.40;99.90;;;;;;5079712;28;20756;-87
2021/07/10 09:00:48;;;;;;;8.82;4.47;;;35.10;99.90;;;;;;5061322;28;20218;-87
2021/07/10 09:03:15;;;;;;;4.57;3.97;;;35.00;99.90;;;;;;5067070;28;20235;-86
2021/07/10 09:05:41;;;;;;;4.75;4.30;;;33.80;99.90;;;;;;5095558;28;20174;-87
2021/07/10 09:08:13;;;;;;;8.20;4.72;;;32.60;99.90;;;;;;5089969;28;20170;-87
2021/07/10 09:10:41;;;;;;;8.55;4.43;;;31.60;99.90;;;;;;5095222;28;20658;-88
2021/07/10 09:13:07;;;;;;;3.97;3.53;;;30.80;99.90;;;;;;5069634;28;20609;-86
2021/07/10 09:15:33;;;;;;;5.72;4.38;;;30.10;99.90;;;;;;5076489;28;20162;-86
2021/07/10 09:17:59;;;;;;;5.68;4.57;;;29.70;99.90;;;;;;5084795;28;20185;-86
2021/07/10 09:20:29;;;;;;;11.32;4.85;;;29.40;99.90;;;;;;5078632;28;20212;-86
2021/07/10 09:22:56;;;;;;;6.75;4.80;;;29.20;99.90;;;;;;5073424;28;20727;-87
2021/07/10 09:25:29;;;;;;;7.25;4.55;;;29.20;99.90;;;;;;5042595;28;20183;-87
2021/07/10 09:27:56;;;;;;;14.02;6.00;;;29.40;99.90;;;;;;5078534;28;20181;-87
2021/07/10 09:30:35;;;;;;;6.47;4.05;;;30.30;99.90;;;;;;5070036;28;20186;-87
2021/07/10 09:33:22;;;;;;;4.63;4.10;;;32.10;99.90;;;;;;5066389;28;20597;-86
2021/07/10 09:35:59;;;;;;;10.05;5.00;;;32.80;99.90;;;;;;5079133;28;20627;-85
2021/07/10 09:38:34;;;;;;;5.53;4.63;;;32.50;99.90;;;;;;5088413;28;20614;-86
2021/07/10 09:41:05;;;;;;;4.93;3.72;;;32.10;99.90;;;;;;5059003;28;20660;-87
2021/07/10 09:43:33;;;;;;;11.43;4.80;;;31.60;99.90;;;;;;5057698;28;20269;-87
2021/07/10 09:46:02;;;;;;;12.27;4.57;;;30.90;99.90;;;;;;5057450;28;20158;-86
2021/07/10 09:48:38;;;;;;;8.35;4.45;;;30.40;99.90;;;;;;5057886;28;20281;-87
2021/07/10 09:51:26;;;;;;;8.38;4.75;;;30.10;99.90;;;;;;5068481;28;20520;-86
2021/07/10 09:54:01;;;;;;;4.70;4.25;;;30.20;99.90;;;;;;5065025;28;20186;-86
2021/07/10 09:56:31;;;;;;;9.25;4.57;;;30.40;99.90;;;;;;5082659;28;20169;-86
2021/07/10 09:58:57;;;;;;;7.70;4.05;;;30.70;99.90;;;;;;5068518;28;20256;-87
2021/07/10 10:01:36;;;;;;;6.82;3.72;;;30.90;99.90;;;;;;5047193;28;20540;-87
2021/07/10 10:04:20;;;;;;;9.00;4.55;;;31.00;99.90;;;;;;5057918;28;20749;-86
2021/07/10 10:06:46;;;;;;;7.72;4.63;;;31.30;99.90;;;;;;5076170;28;20155;-88
2021/07/10 10:09:21;;;;;;;5.43;4.05;;;31.90;99.90;;;;;;5057431;28;20193;-86
2021/07/10 10:11:57;;;;;;;8.15;4.00;;;33.50;99.90;;;;;;5076018;28;20195;-84
2021/07/10 10:14:35;;;;;;;8.15;4.25;;;34.00;99.90;;;;;;5094586;28;20195;-86
2021/07/10 10:17:01;;;;;;;5.30;4.25;;;34.20;99.90;;;;;;5075539;28;20216;-88
2021/07/10 10:19:30;;;;;;;7.57;4.38;;;34.60;99.90;;;;;;5080187;28;20197;-88
2021/07/10 10:21:59;;;;;;;8.65;4.78;;;35.50;99.90;;;;;;5049499;28;20216;-87
2021/07/10 10:24:26;;;;;;;7.70;4.78;;;36.40;99.90;;;;;;5086495;28;20182;-88
2021/07/10 10:26:53;;;;;;;6.93;3.88;;;36.30;99.60;;;;;;5040840;28;20189;-86
2021/07/10 10:29:21;;;;;;;4.53;3.95;;;36.40;99.00;;;;;;5056914;28;20172;-86
2021/07/10 10:31:48;;;;;;;5.93;3.00;;;37.10;97.70;;;;;;5045316;28;20181;-86
2021/07/10 10:34:14;;;;;;;7.70;2.90;;;36.70;96.70;;;;;;5058414;28;20162;-87
2021/07/10 10:36:43;;;;;;;3.65;2.92;;;36.30;95.70;;;;;;5056625;28;20226;-87
2021/07/10 10:39:21;;;;;;;4.15;2.63;;;37.10;97.80;;;;;;5082047;28;20206;-86
2021/07/10 10:41:51;;;;;;;4.30;2.58;;;36.60;94.60;;;;;;5075017;28;20182;-87
2021/07/10 10:44:19;;;;;;;2.55;1.88;;;35.40;96.50;;;;;;5092392;28;20169;-86
2021/07/10 10:46:56;;;;;;;2.22;2.05;;;35.70;96.00;;;;;;5040536;28;20197;-87
2021/07/10 10:49:55;;;;;;;2.58;1.92;;;35.90;95.80;;;;;;5074725;28;20192;-86
2021/07/10 10:52:29;;;;;;;2.42;2.05;;;36.20;94.00;;;;;;5020789;28;20195;-86
2021/07/10 10:55:08;;;;;;;2.30;2.10;;;37.30;94.10;;;;;;5080572;28;20331;-84
2021/07/10 10:57:52;;;;;;;1.80;1.70;;;37.70;94.20;;;;;;5078015;28;20186;-85
2021/07/10 11:00:24;;;;;;;3.05;1.98;;;37.80;94.50;;;;;;5076274;28;20677;-84
2021/07/10 11:02:51;;;;;;;3.05;2.00;;;38.60;90.80;;;;;;5075040;28;20185;-85
2021/07/10 11:05:31;;;;;;;2.58;1.90;;;39.60;88.40;;;;;;5074874;28;20178;-86
2021/07/10 11:08:29;;;;;;;2.60;2.13;;;40.30;88.20;;;;;;5084729;28;20209;-87
2021/07/10 11:10:56;;;;;;;2.33;2.08;;;41.40;83.80;;;;;;5065055;28;20728;-87
2021/07/10 11:13:42;;;;;;;3.55;2.03;;;41.30;81.30;;;;;;5085518;28;20173;-88
2021/07/10 11:16:16;;;;;;;3.03;2.22;;;40.90;80.10;;;;;;5072883;28;20651;-86
2021/07/10 11:19:06;;;;;;;3.05;2.40;;;40.10;81.10;;;;;;5094603;28;20245;-85
2021/07/10 11:21:38;;;;;;;2.85;1.73;;;39.30;81.90;;;;;;5067985;28;20666;-86
2021/07/10 11:24:24;;;;;;;3.47;2.53;;;38.10;83.10;;;;;;5079002;28;20165;-87
2021/07/10 11:26:56;;;;;;;2.30;2.15;;;36.90;84.00;;;;;;5093413;28;20185;-85
2021/07/10 11:29:33;;;;;;;3.45;2.40;;;35.60;86.80;;;;;;5059691;28;20182;-85
2021/07/10 11:32:11;;;;;;;2.45;1.80;;;35.10;88.10;;;;;;5092130;28;20257;-85
2021/07/10 11:34:43;;;;;;;3.58;2.13;;;34.50;90.40;;;;;;5092604;28;20180;-84
2021/07/10 11:37:17;;;;;;;3.03;2.40;;;34.40;90.80;;;;;;5088352;28;20186;-85
2021/07/10 11:39:52;;;;;;;5.38;2.30;;;34.00;90.80;;;;;;5092620;28;20196;-85
2021/07/10 11:42:22;;;;;;;2.65;2.42;;;33.00;92.00;;;;;;5092878;28;20181;-85
2021/07/10 11:44:50;;;;;;;2.22;2.03;;;32.60;91.70;;;;;;5075842;28;20223;-84
2021/07/10 11:47:30;;;;;;;9.38;2.50;;;33.50;91.60;;;;;;5089806;28;20261;-84
2021/07/10 11:49:57;;;;;;;4.82;2.45;;;33.70;90.80;;;;;;5073579;28;20170;-85
2021/07/10 11:52:23;;;;;;;5.05;2.47;;;32.30;93.00;;;;;;5055782;28;20181;-85
2021/07/10 11:54:59;;;;;;;2.70;2.17;;;33.20;92.30;;;;;;5053250;28;20182;-84
2021/07/10 11:57:27;;;;;;;2.85;2.22;;;34.00;90.80;;;;;;5088518;28;20601;-84
2021/07/10 11:59:54;;;;;;;2.67;2.30;;;33.80;90.50;;;;;;5067858;28;20198;-85
2021/07/10 12:02:29;;;;;;;2.63;2.42;;;33.80;91.30;;;;;;5073207;28;20187;-85
2021/07/10 12:05:10;;;;;;;3.10;2.25;;;34.20;90.90;;;;;;5075511;28;20169;-84
2021/07/10 12:07:47;;;;;;;4.22;2.50;;;33.70;92.10;;;;;;5086109;28;20173;-84
2021/07/10 12:10:17;;;;;;;3.13;2.28;;;32.90;92.30;;;;;;5075653;28;20177;-84
2021/07/10 12:13:01;;;;;;;2.78;2.40;;;32.20;92.60;;;;;;5093577;28;20550;-85
2021/07/10 12:15:30;;;;;;;3.83;2.72;;;31.30;94.90;;;;;;5086718;28;20174;-84
2021/07/10 12:17:58;;;;;;;4.38;2.75;;;30.80;95.40;;;;;;5055215;28;20204;-84
2021/07/10 12:20:29;;;;;;;2.78;2.45;;;30.50;94.80;;;;;;5072998;28;20201;-84
2021/07/10 12:22:57;;;;;;;7.50;2.45;;;30.20;95.60;;;;;;5073128;28;20216;-84
2021/07/10 12:25:35;;;;;;;6.78;2.50;;;29.90;97.10;;;;;;5087670;28;20201;-84
2021/07/10 12:28:03;;;;;;;3.22;2.85;;;29.70;95.90;;;;;;5081167;28;20174;-84
2021/07/10 12:30:49;;;;;;;2.58;2.38;;;29.30;97.20;;;;;;5072951;28;20166;-85
2021/07/10 12:33:29;;;;;;;2.83;2.60;;;28.80;97.50;;;;;;5077161;28;20182;-84
2021/07/10 12:36:04;;;;;;;4.65;2.85;;;28.40;97.90;;;;;;5073293;28;20158;-85
2021/07/10 12:38:29;;;;;;;3.28;2.97;;;28.00;99.90;;;;;;5089496;28;20674;-85
2021/07/10 12:40:55;;;;;;;2.78;2.30;;;27.70;99.90;;;;;;5061832;28;20182;-85